sensor_id;sensor_type;location;lat;lon;timestamp;pressure;altitude;pressure_sealevel;temperature;humidity
19890;BME280;10107;51.198;6.824;2023-01-06T00:01:49;-21570.84;;;9.58;100.00
19890;BME280;10107;51.198;6.824;2023-01-06T00:05:56;-21570.97;;;9.59;100.00
19890;BME280;10107;51.198;6.824;2023-01-06T00:09:58;-21570.84;;;9.58;100.00
19890;BME280;10107;51.198;6.824;2023-01-06T00:14:01;-21571.50;;;9.61;100.00
19890;BME280;10107;51.198;6.824;2023-01-06T00:18:03;-21570.72;;;9.58;100.00
19890;BME280;10107;51.198;6.824;2023-01-06T00:22:05;-21570.31;;;9.56;100.00
19890;BME280;10107;51.198;6.824;2023-01-06T00:26:08;-21570.44;;;9.57;100.00
19890;BME280;10107;51.198;6.824;2023-01-06T00:30:12;-21570.44;;;9.57;100.00
19890;BME280;10107;51.198;6.824;2023-01-06T00:34:14;-21570.19;;;9.56;100.00
19890;BME280;10107;51.198;6.824;2023-01-06T00:38:15;-21570.31;;;9.56;100.00
19890;BME280;10107;51.198;6.824;2023-01-06T00:42:17;-21570.06;;;9.55;100.00
19890;BME280;10107;51.198;6.824;2023-01-06T00:46:20;-21569.38;;;9.52;100.00
19890;BME280;10107;51.198;6.824;2023-01-06T00:50:24;-21568.84;;;9.50;100.00
19890;BME280;10107;51.198;6.824;2023-01-06T00:54:26;-21568.34;;;9.48;100.00
19890;BME280;10107;51.198;6.824;2023-01-06T00:58:28;-21568.47;;;9.49;100.00
19890;BME280;10107;51.198;6.824;2023-01-06T01:02:32;-21568.47;;;9.49;100.00
19890;BME280;10107;51.198;6.824;2023-01-06T01:06:34;-21567.94;;;9.47;100.00
19890;BME280;10107;51.198;6.824;2023-01-06T01:10:36;-21568.06;;;9.47;100.00
19890;BME280;10107;51.198;6.824;2023-01-06T01:14:41;-21568.06;;;9.47;100.00
19890;BME280;10107;51.198;6.824;2023-01-06T01:18:44;-21568.06;;;9.47;100.00
19890;BME280;10107;51.198;6.824;2023-01-06T01:22:46;-21567.81;;;9.46;100.00
19890;BME280;10107;51.198;6.824;2023-01-06T01:26:48;-21568.59;;;9.49;100.00
19890;BME280;10107;51.198;6.824;2023-01-06T01:30:57;-21569.25;;;9.52;100.00
19890;BME280;10107;51.198;6.824;2023-01-06T01:35:00;-21569.78;;;9.54;100.00
19890;BME280;10107;51.198;6.824;2023-01-06T01:39:02;-21569.91;;;9.55;100.00
19890;BME280;10107;51.198;6.824;2023-01-06T01:43:05;-21569.53;;;9.53;100.00
19890;BME280;10107;51.198;6.824;2023-01-06T01:47:07;-21569.91;;;9.55;100.00
19890;BME280;10107;51.198;6.824;2023-01-06T01:51:13;-21570.06;;;9.55;100.00
19890;BME280;10107;51.198;6.824;2023-01-06T01:55:16;-21570.59;;;9.57;100.00
19890;BME280;10107;51.198;6.824;2023-01-06T01:59:21;-21570.84;;;9.58;100.00
19890;BME280;10107;51.198;6.824;2023-01-06T02:03:25;-21570.84;;;9.58;100.00
19890;BME280;10107;51.198;6.824;2023-01-06T02:07:28;-21570.59;;;9.57;100.00
19890;BME280;10107;51.198;6.824;2023-01-06T02:11:32;-21570.06;;;9.55;100.00
19890;BME280;10107;51.198;6.824;2023-01-06T02:15:34;-21570.44;;;9.57;100.00
19890;BME280;10107;51.198;6.824;2023-01-06T02:20:18;-21570.31;;;9.56;100.00
19890;BME280;10107;51.198;6.824;2023-01-06T02:25:06;-21570.06;;;9.55;100.00
19890;BME280;10107;51.198;6.824;2023-01-06T02:29:57;-21569.78;;;9.54;100.00
19890;BME280;10107;51.198;6.824;2023-01-06T02:34:12;-21569.78;;;9.54;100.00
19890;BME280;10107;51.198;6.824;2023-01-06T02:38:27;-21569.66;;;9.54;100.00
19890;BME280;10107;51.198;6.824;2023-01-06T02:42:42;-21569.00;;;9.51;100.00
19890;BME280;10107;51.198;6.824;2023-01-06T02:46:58;-21569.25;;;9.52;100.00
19890;BME280;10107;51.198;6.824;2023-01-06T02:51:08;-21569.78;;;9.54;100.00
19890;BME280;10107;51.198;6.824;2023-01-06T02:55:18;-21569.91;;;9.55;100.00
19890;BME280;10107;51.198;6.824;2023-01-06T02:59:25;-21571.25;;;9.60;100.00
19890;BME280;10107;51.198;6.824;2023-01-06T03:03:33;-21572.19;;;9.63;100.00
19890;BME280;10107;51.198;6.824;2023-01-06T03:07:38;-21573.50;;;9.68;100.00
19890;BME280;10107;51.198;6.824;2023-01-06T03:11:42;-21575.50;;;9.76;100.00
19890;BME280;10107;51.198;6.824;2023-01-06T03:15:46;-21576.16;;;9.79;100.00
19890;BME280;10107;51.198;6.824;2023-01-06T03:19:48;-21577.09;;;9.82;100.00
19890;BME280;10107;51.198;6.824;2023-01-06T03:23:52;-21578.16;;;9.86;100.00
19890;BME280;10107;51.198;6.824;2023-01-06T03:27:55;-21578.81;;;9.89;100.00
19890;BME280;10107;51.198;6.824;2023-01-06T03:32:02;-21579.19;;;9.90;100.00
19890;BME280;10107;51.198;6.824;2023-01-06T03:36:11;-21579.88;;;9.93;100.00
19890;BME280;10107;51.198;6.824;2023-01-06T03:40:25;-21579.47;;;9.91;100.00
19890;BME280;10107;51.198;6.824;2023-01-06T03:44:34;-21579.06;;;9.90;100.00
19890;BME280;10107;51.198;6.824;2023-01-06T03:48:52;-21578.69;;;9.88;100.00
19890;BME280;10107;51.198;6.824;2023-01-06T03:53:03;-21577.75;;;9.85;100.00
19890;BME280;10107;51.198;6.824;2023-01-06T03:57:13;-21578.00;;;9.86;100.00
19890;BME280;10107;51.198;6.824;2023-01-06T04:01:16;-21578.41;;;9.87;100.00
19890;BME280;10107;51.198;6.824;2023-01-06T04:05:21;-21578.16;;;9.86;100.00
19890;BME280;10107;51.198;6.824;2023-01-06T04:09:24;-21577.47;;;9.84;100.00
19890;BME280;10107;51.198;6.824;2023-01-06T04:13:28;-21576.81;;;9.81;100.00
19890;BME280;10107;51.198;6.824;2023-01-06T04:17:31;-21576.16;;;9.79;100.00
19890;BME280;10107;51.198;6.824;2023-01-06T04:21:34;-21575.88;;;9.78;100.00
19890;BME280;10107;51.198;6.824;2023-01-06T04:25:36;-21576.16;;;9.79;100.00
19890;BME280;10107;51.198;6.824;2023-01-06T04:29:45;-21576.41;;;9.80;100.00
19890;BME280;10107;51.198;6.824;2023-01-06T04:33:47;-21576.69;;;9.81;100.00
19890;BME280;10107;51.198;6.824;2023-01-06T04:37:49;-21576.94;;;9.82;100.00
19890;BME280;10107;51.198;6.824;2023-01-06T04:41:51;-21576.41;;;9.80;100.00
19890;BME280;10107;51.198;6.824;2023-01-06T04:45:56;-21576.41;;;9.80;100.00
19890;BME280;10107;51.198;6.824;2023-01-06T04:49:58;-21577.63;;;9.84;100.00
19890;BME280;10107;51.198;6.824;2023-01-06T04:54:00;-21577.75;;;9.85;100.00
19890;BME280;10107;51.198;6.824;2023-01-06T04:58:02;-21577.88;;;9.85;100.00
19890;BME280;10107;51.198;6.824;2023-01-06T05:02:05;-21578.00;;;9.86;100.00
19890;BME280;10107;51.198;6.824;2023-01-06T05:06:08;-21577.22;;;9.83;100.00
19890;BME280;10107;51.198;6.824;2023-01-06T05:10:11;-21578.16;;;9.86;100.00
19890;BME280;10107;51.198;6.824;2023-01-06T05:14:12;-21578.28;;;9.87;100.00
19890;BME280;10107;51.198;6.824;2023-01-06T05:18:15;-21577.47;;;9.84;100.00
19890;BME280;10107;51.198;6.824;2023-01-06T05:22:18;-21576.94;;;9.82;100.00
19890;BME280;10107;51.198;6.824;2023-01-06T05:26:22;-21576.94;;;9.82;100.00
19890;BME280;10107;51.198;6.824;2023-01-06T05:30:25;-21575.22;;;9.75;100.00
19890;BME280;10107;51.198;6.824;2023-01-06T05:34:28;-21574.69;;;9.73;100.00
19890;BME280;10107;51.198;6.824;2023-01-06T05:38:29;-21575.88;;;9.78;100.00
19890;BME280;10107;51.198;6.824;2023-01-06T05:42:31;-21576.41;;;9.80;100.00
19890;BME280;10107;51.198;6.824;2023-01-06T05:46:33;-21578.53;;;9.88;100.00
19890;BME280;10107;51.198;6.824;2023-01-06T05:50:36;-21578.41;;;9.87;100.00
19890;BME280;10107;51.198;6.824;2023-01-06T05:54:37;-21578.16;;;9.86;100.00
19890;BME280;10107;51.198;6.824;2023-01-06T05:58:43;-21578.69;;;9.88;100.00
19890;BME280;10107;51.198;6.824;2023-01-06T06:02:45;-21578.53;;;9.88;100.00
19890;BME280;10107;51.198;6.824;2023-01-06T06:06:48;-21576.81;;;9.81;100.00
19890;BME280;10107;51.198;6.824;2023-01-06T06:10:49;-21577.22;;;9.83;100.00
19890;BME280;10107;51.198;6.824;2023-01-06T06:14:51;-21577.47;;;9.84;100.00
19890;BME280;10107;51.198;6.824;2023-01-06T06:18:54;-21576.69;;;9.81;100.00
19890;BME280;10107;51.198;6.824;2023-01-06T06:22:57;-21576.81;;;9.81;100.00
19890;BME280;10107;51.198;6.824;2023-01-06T06:26:59;-21575.88;;;9.78;100.00
19890;BME280;10107;51.198;6.824;2023-01-06T06:31:05;-21575.75;;;9.77;100.00
19890;BME280;10107;51.198;6.824;2023-01-06T06:35:07;-21576.16;;;9.79;100.00
19890;BME280;10107;51.198;6.824;2023-01-06T06:39:10;-21576.94;;;9.82;100.00
19890;BME280;10107;51.198;6.824;2023-01-06T06:43:11;-21577.22;;;9.83;100.00
19890;BME280;10107;51.198;6.824;2023-01-06T06:47:13;-21577.75;;;9.85;100.00
19890;BME280;10107;51.198;6.824;2023-01-06T06:51:17;-21578.41;;;9.87;100.00
19890;BME280;10107;51.198;6.824;2023-01-06T06:55:20;-21579.47;;;9.91;100.00
19890;BME280;10107;51.198;6.824;2023-01-06T06:59:22;-21579.88;;;9.93;100.00
19890;BME280;10107;51.198;6.824;2023-01-06T07:03:24;-21579.59;;;9.92;100.00
19890;BME280;10107;51.198;6.824;2023-01-06T07:07:26;-21580.25;;;9.95;100.00
19890;BME280;10107;51.198;6.824;2023-01-06T07:11:29;-21579.88;;;9.93;100.00
19890;BME280;10107;51.198;6.824;2023-01-06T07:15:30;-21577.22;;;9.83;100.00
19890;BME280;10107;51.198;6.824;2023-01-06T07:19:32;-21574.69;;;9.73;100.00
19890;BME280;10107;51.198;6.824;2023-01-06T07:23:34;-21574.28;;;9.71;100.00
19890;BME280;10107;51.198;6.824;2023-01-06T07:27:37;-21574.44;;;9.72;100.00
19890;BME280;10107;51.198;6.824;2023-01-06T07:31:38;-21575.50;;;9.76;100.00
19890;BME280;10107;51.198;6.824;2023-01-06T07:35:40;-21576.28;;;9.79;100.00
19890;BME280;10107;51.198;6.824;2023-01-06T07:39:42;-21576.94;;;9.82;100.00
19890;BME280;10107;51.198;6.824;2023-01-06T07:43:45;-21578.69;;;9.88;100.00
19890;BME280;10107;51.198;6.824;2023-01-06T07:47:46;-21580.25;;;9.95;100.00
19890;BME280;10107;51.198;6.824;2023-01-06T07:51:48;-21580.13;;;9.94;100.00
19890;BME280;10107;51.198;6.824;2023-01-06T07:55:50;-21581.31;;;9.99;100.00
19890;BME280;10107;51.198;6.824;2023-01-06T07:59:54;-21582.13;;;10.02;100.00
19890;BME280;10107;51.198;6.824;2023-01-06T08:03:56;-21582.78;;;10.04;100.00
19890;BME280;10107;51.198;6.824;2023-01-06T08:07:58;-21582.78;;;10.04;100.00
19890;BME280;10107;51.198;6.824;2023-01-06T08:11:59;-21583.72;;;10.08;100.00
19890;BME280;10107;51.198;6.824;2023-01-06T08:16:04;-21584.78;;;10.12;100.00
19890;BME280;10107;51.198;6.824;2023-01-06T08:20:07;-21584.78;;;10.12;100.00
19890;BME280;10107;51.198;6.824;2023-01-06T08:24:09;-21586.63;;;10.19;100.00
19890;BME280;10107;51.198;6.824;2023-01-06T08:28:11;-21587.03;;;10.21;100.00
19890;BME280;10107;51.198;6.824;2023-01-06T08:32:14;-21587.28;;;10.22;100.00
19890;BME280;10107;51.198;6.824;2023-01-06T08:36:17;-21586.88;;;10.20;100.00
19890;BME280;10107;51.198;6.824;2023-01-06T08:40:19;-21587.03;;;10.21;100.00
19890;BME280;10107;51.198;6.824;2023-01-06T08:44:21;-21588.47;;;10.26;100.00
19890;BME280;10107;51.198;6.824;2023-01-06T08:48:24;-21589.41;;;10.30;100.00
19890;BME280;10107;51.198;6.824;2023-01-06T08:52:26;-21590.75;;;10.35;100.00
19890;BME280;10107;51.198;6.824;2023-01-06T08:56:29;-21591.94;;;10.40;100.00
19890;BME280;10107;51.198;6.824;2023-01-06T09:00:32;-21594.19;;;10.48;100.00
19890;BME280;10107;51.198;6.824;2023-01-06T09:04:35;-21595.25;;;10.53;100.00
19890;BME280;10107;51.198;6.824;2023-01-06T09:08:36;-21596.56;;;10.58;100.00
19890;BME280;10107;51.198;6.824;2023-01-06T09:12:38;-21597.38;;;10.61;100.00
19890;BME280;10107;51.198;6.824;2023-01-06T09:16:40;-21597.09;;;10.60;100.00
19890;BME280;10107;51.198;6.824;2023-01-06T09:20:45;-21595.38;;;10.53;100.00
19890;BME280;10107;51.198;6.824;2023-01-06T09:24:47;-21593.53;;;10.46;100.00
19890;BME280;10107;51.198;6.824;2023-01-06T09:28:49;-21594.72;;;10.50;100.00
19890;BME280;10107;51.198;6.824;2023-01-06T09:32:50;-21595.50;;;10.54;100.00
19890;BME280;10107;51.198;6.824;2023-01-06T09:36:53;-21596.03;;;10.56;100.00
19890;BME280;10107;51.198;6.824;2023-01-06T09:41:16;-21598.03;;;10.63;100.00
19890;BME280;10107;51.198;6.824;2023-01-06T09:45:30;-21595.50;;;10.54;100.00
19890;BME280;10107;51.198;6.824;2023-01-06T09:49:37;-21595.78;;;10.55;100.00
19890;BME280;10107;51.198;6.824;2023-01-06T09:53:44;-21602.53;;;10.81;100.00
19890;BME280;10107;51.198;6.824;2023-01-06T09:57:51;-21606.50;;;10.96;100.00
19890;BME280;10107;51.198;6.824;2023-01-06T10:01:55;-21607.03;;;10.98;100.00
19890;BME280;10107;51.198;6.824;2023-01-06T10:06:09;-21603.59;;;10.85;100.00
19890;BME280;10107;51.198;6.824;2023-01-06T10:10:26;-21598.28;;;10.64;100.00
19890;BME280;10107;51.198;6.824;2023-01-06T10:14:38;-21602.41;;;10.80;100.00
19890;BME280;10107;51.198;6.824;2023-01-06T10:18:48;-21607.03;;;10.98;100.00
19890;BME280;10107;51.198;6.824;2023-01-06T10:22:57;-21601.47;;;10.77;100.00
19890;BME280;10107;51.198;6.824;2023-01-06T10:27:13;-21597.50;;;10.61;100.00
19890;BME280;10107;51.198;6.824;2023-01-06T10:31:19;-21595.25;;;10.53;100.00
19890;BME280;10107;51.198;6.824;2023-01-06T10:35:23;-21595.25;;;10.53;100.00
19890;BME280;10107;51.198;6.824;2023-01-06T10:39:27;-21598.16;;;10.64;100.00
19890;BME280;10107;51.198;6.824;2023-01-06T10:43:31;-21601.34;;;10.76;100.00
19890;BME280;10107;51.198;6.824;2023-01-06T10:47:33;-21597.63;;;10.62;100.00
19890;BME280;10107;51.198;6.824;2023-01-06T10:51:36;-21595.50;;;10.54;100.00
19890;BME280;10107;51.198;6.824;2023-01-06T10:55:41;-21595.13;;;10.52;100.00
19890;BME280;10107;51.198;6.824;2023-01-06T11:00:17;-21596.44;;;10.57;100.00
19890;BME280;10107;51.198;6.824;2023-01-06T11:04:23;-21597.09;;;10.60;100.00
19890;BME280;10107;51.198;6.824;2023-01-06T11:08:26;-21601.06;;;10.75;100.00
19890;BME280;10107;51.198;6.824;2023-01-06T11:12:29;-21608.50;;;11.04;100.00
19890;BME280;10107;51.198;6.824;2023-01-06T11:16:35;-21626.34;;;11.73;100.00
19890;BME280;10107;51.198;6.824;2023-01-06T11:20:38;-21653.56;;;12.79;100.00
19890;BME280;10107;51.198;6.824;2023-01-06T11:24:49;-21662.41;;;13.13;100.00
19890;BME280;10107;51.198;6.824;2023-01-06T11:28:54;-21654.22;;;12.81;100.00
19890;BME280;10107;51.198;6.824;2023-01-06T11:32:57;-21642.72;;;12.37;100.00
19890;BME280;10107;51.198;6.824;2023-01-06T11:36:59;-21636.41;;;12.12;100.00
19890;BME280;10107;51.198;6.824;2023-01-06T11:41:07;-21647.34;;;12.55;100.00
19890;BME280;10107;51.198;6.824;2023-01-06T11:45:29;-21654.47;;;12.82;100.00
19890;BME280;10107;51.198;6.824;2023-01-06T11:49:36;-21661.22;;;13.08;100.00
19890;BME280;10107;51.198;6.824;2023-01-06T11:53:54;-21666.50;;;13.29;100.00
19890;BME280;10107;51.198;6.824;2023-01-06T11:57:59;-21665.03;;;13.23;100.00
19890;BME280;10107;51.198;6.824;2023-01-06T12:02:09;-21661.88;;;13.11;100.00
19890;BME280;10107;51.198;6.824;2023-01-06T12:06:21;-21664.25;;;13.20;100.00
19890;BME280;10107;51.198;6.824;2023-01-06T12:10:29;-21657.91;;;12.96;100.00
19890;BME280;10107;51.198;6.824;2023-01-06T12:14:34;-21665.31;;;13.24;100.00
19890;BME280;10107;51.198;6.824;2023-01-06T12:18:36;-21672.03;;;13.51;100.00
19890;BME280;10107;51.198;6.824;2023-01-06T12:22:44;-21670.19;;;13.43;100.00
19890;BME280;10107;51.198;6.824;2023-01-06T12:26:48;-21660.81;;;13.07;100.00
19890;BME280;10107;51.198;6.824;2023-01-06T12:30:57;-21651.59;;;12.71;100.00
19890;BME280;10107;51.198;6.824;2023-01-06T12:35:01;-21643.25;;;12.39;100.00
19890;BME280;10107;51.198;6.824;2023-01-06T12:39:10;-21636.00;;;12.11;100.00
19890;BME280;10107;51.198;6.824;2023-01-06T12:43:15;-21629.50;;;11.85;100.00
19890;BME280;10107;51.198;6.824;2023-01-06T12:47:23;-21625.81;;;11.71;100.00
19890;BME280;10107;51.198;6.824;2023-01-06T12:51:29;-21631.50;;;11.93;100.00
19890;BME280;10107;51.198;6.824;2023-01-06T12:55:40;-21637.19;;;12.15;100.00
19890;BME280;10107;51.198;6.824;2023-01-06T12:59:57;-21638.78;;;12.21;100.00
19890;BME280;10107;51.198;6.824;2023-01-06T13:04:39;-21637.19;;;12.15;100.00
19890;BME280;10107;51.198;6.824;2023-01-06T13:09:01;-21628.72;;;11.82;100.00
19890;BME280;10107;51.198;6.824;2023-01-06T13:13:29;-21620.53;;;11.50;100.00
19890;BME280;10107;51.198;6.824;2023-01-06T13:17:36;-21618.81;;;11.44;100.00
19890;BME280;10107;51.198;6.824;2023-01-06T13:21:41;-21620.13;;;11.49;100.00
19890;BME280;10107;51.198;6.824;2023-01-06T13:26:06;-21615.38;;;11.30;100.00
19890;BME280;10107;51.198;6.824;2023-01-06T13:30:44;-21613.91;;;11.25;100.00
19890;BME280;10107;51.198;6.824;2023-01-06T13:39:29;-21615.91;;;11.33;100.00
19890;BME280;10107;51.198;6.824;2023-01-06T13:43:34;-21616.81;;;11.36;100.00
19890;BME280;10107;51.198;6.824;2023-01-06T13:47:38;-21618.94;;;11.44;100.00
19890;BME280;10107;51.198;6.824;2023-01-06T13:51:40;-21618.41;;;11.42;100.00
19890;BME280;10107;51.198;6.824;2023-01-06T13:55:43;-21612.59;;;11.20;100.00
19890;BME280;10107;51.198;6.824;2023-01-06T13:59:49;-21611.66;;;11.16;100.00
19890;BME280;10107;51.198;6.824;2023-01-06T14:03:53;-21608.75;;;11.05;100.00
19890;BME280;10107;51.198;6.824;2023-01-06T14:07:57;-21605.72;;;10.93;100.00
19890;BME280;10107;51.198;6.824;2023-01-06T14:12:07;-21603.59;;;10.85;100.00
19890;BME280;10107;51.198;6.824;2023-01-06T14:16:10;-21601.47;;;10.77;100.00
19890;BME280;10107;51.198;6.824;2023-01-06T14:20:29;-21599.75;;;10.70;100.00
19890;BME280;10107;51.198;6.824;2023-01-06T14:24:31;-21599.75;;;10.70;100.00
19890;BME280;10107;51.198;6.824;2023-01-06T14:28:35;-21598.44;;;10.65;100.00
19890;BME280;10107;51.198;6.824;2023-01-06T14:33:02;-21597.91;;;10.63;100.00
19890;BME280;10107;51.198;6.824;2023-01-06T14:37:10;-21597.91;;;10.63;100.00
19890;BME280;10107;51.198;6.824;2023-01-06T14:41:17;-21597.09;;;10.60;100.00
19890;BME280;10107;51.198;6.824;2023-01-06T14:45:25;-21595.38;;;10.53;100.00
19890;BME280;10107;51.198;6.824;2023-01-06T14:49:33;-21594.97;;;10.52;100.00
19890;BME280;10107;51.198;6.824;2023-01-06T14:53:42;-21592.59;;;10.42;100.00
19890;BME280;10107;51.198;6.824;2023-01-06T14:57:46;-21590.75;;;10.35;100.00
19890;BME280;10107;51.198;6.824;2023-01-06T15:01:57;-21590.47;;;10.34;100.00
19890;BME280;10107;51.198;6.824;2023-01-06T15:06:10;-21589.41;;;10.30;100.00
19890;BME280;10107;51.198;6.824;2023-01-06T15:10:18;-21589.41;;;10.30;100.00
19890;BME280;10107;51.198;6.824;2023-01-06T15:14:23;-21589.00;;;10.28;100.00
19890;BME280;10107;51.198;6.824;2023-01-06T15:18:25;-21587.41;;;10.22;100.00
19890;BME280;10107;51.198;6.824;2023-01-06T15:22:27;-21586.09;;;10.17;100.00
19890;BME280;10107;51.198;6.824;2023-01-06T15:26:30;-21586.22;;;10.18;100.00
19890;BME280;10107;51.198;6.824;2023-01-06T15:30:32;-21585.44;;;10.15;100.00
19890;BME280;10107;51.198;6.824;2023-01-06T15:34:38;-21585.03;;;10.13;100.00
19890;BME280;10107;51.198;6.824;2023-01-06T15:38:42;-21584.50;;;10.11;100.00
19890;BME280;10107;51.198;6.824;2023-01-06T15:42:45;-21584.63;;;10.11;100.00
19890;BME280;10107;51.198;6.824;2023-01-06T15:46:48;-21583.72;;;10.08;100.00
19890;BME280;10107;51.198;6.824;2023-01-06T15:50:51;-21583.84;;;10.08;100.00
19890;BME280;10107;51.198;6.824;2023-01-06T15:54:54;-21583.19;;;10.06;100.00
19890;BME280;10107;51.198;6.824;2023-01-06T15:58:58;-21582.38;;;10.03;100.00
19890;BME280;10107;51.198;6.824;2023-01-06T16:03:00;-21582.00;;;10.01;100.00
19890;BME280;10107;51.198;6.824;2023-01-06T16:07:20;-21581.59;;;10.00;100.00
19890;BME280;10107;51.198;6.824;2023-01-06T16:11:26;-21581.72;;;10.00;100.00
19890;BME280;10107;51.198;6.824;2023-01-06T16:15:49;-21580.41;;;9.95;100.00
19890;BME280;10107;51.198;6.824;2023-01-06T16:19:52;-21579.72;;;9.93;100.00
19890;BME280;10107;51.198;6.824;2023-01-06T16:24:00;-21580.25;;;9.95;100.00
19890;BME280;10107;51.198;6.824;2023-01-06T16:28:04;-21580.78;;;9.97;100.00
19890;BME280;10107;51.198;6.824;2023-01-06T16:32:25;-21580.13;;;9.94;100.00
19890;BME280;10107;51.198;6.824;2023-01-06T16:36:28;-21580.13;;;9.94;100.00
19890;BME280;10107;51.198;6.824;2023-01-06T16:40:30;-21578.94;;;9.89;100.00
19890;BME280;10107;51.198;6.824;2023-01-06T16:44:31;-21578.81;;;9.89;100.00
19890;BME280;10107;51.198;6.824;2023-01-06T16:48:34;-21577.75;;;9.85;100.00
19890;BME280;10107;51.198;6.824;2023-01-06T16:52:36;-21576.81;;;9.81;100.00
19890;BME280;10107;51.198;6.824;2023-01-06T16:56:38;-21577.47;;;9.84;100.00
19890;BME280;10107;51.198;6.824;2023-01-06T17:00:40;-21577.75;;;9.85;100.00
19890;BME280;10107;51.198;6.824;2023-01-06T17:04:45;-21577.63;;;9.84;100.00
19890;BME280;10107;51.198;6.824;2023-01-06T17:08:47;-21577.22;;;9.83;100.00
19890;BME280;10107;51.198;6.824;2023-01-06T17:12:55;-21577.34;;;9.83;100.00
19890;BME280;10107;51.198;6.824;2023-01-06T17:17:20;-21575.88;;;9.78;100.00
19890;BME280;10107;51.198;6.824;2023-01-06T17:21:27;-21576.28;;;9.79;100.00
19890;BME280;10107;51.198;6.824;2023-01-06T17:25:29;-21576.81;;;9.81;100.00
19890;BME280;10107;51.198;6.824;2023-01-06T17:29:32;-21577.34;;;9.83;100.00
19890;BME280;10107;51.198;6.824;2023-01-06T17:33:35;-21576.81;;;9.81;100.00
19890;BME280;10107;51.198;6.824;2023-01-06T17:37:38;-21576.81;;;9.81;100.00
19890;BME280;10107;51.198;6.824;2023-01-06T17:41:41;-21576.41;;;9.80;100.00
19890;BME280;10107;51.198;6.824;2023-01-06T17:45:42;-21576.28;;;9.79;100.00
19890;BME280;10107;51.198;6.824;2023-01-06T17:49:47;-21575.75;;;9.77;100.00
19890;BME280;10107;51.198;6.824;2023-01-06T17:53:51;-21574.97;;;9.74;100.00
19890;BME280;10107;51.198;6.824;2023-01-06T17:58:13;-21574.81;;;9.74;100.00
19890;BME280;10107;51.198;6.824;2023-01-06T18:02:30;-21574.97;;;9.74;100.00
19890;BME280;10107;51.198;6.824;2023-01-06T18:06:35;-21575.88;;;9.78;100.00
19890;BME280;10107;51.198;6.824;2023-01-06T18:10:42;-21575.34;;;9.76;100.00
19890;BME280;10107;51.198;6.824;2023-01-06T18:14:43;-21573.09;;;9.67;100.00
19890;BME280;10107;51.198;6.824;2023-01-06T18:18:45;-21571.91;;;9.62;100.00
19890;BME280;10107;51.198;6.824;2023-01-06T18:22:48;-21573.22;;;9.67;100.00
19890;BME280;10107;51.198;6.824;2023-01-06T18:26:53;-21574.28;;;9.71;100.00
19890;BME280;10107;51.198;6.824;2023-01-06T18:30:57;-21574.81;;;9.74;100.00
19890;BME280;10107;51.198;6.824;2023-01-06T18:35:00;-21574.28;;;9.71;100.00
19890;BME280;10107;51.198;6.824;2023-01-06T18:39:02;-21573.09;;;9.67;100.00
19890;BME280;10107;51.198;6.824;2023-01-06T18:43:21;-21572.44;;;9.64;100.00
19890;BME280;10107;51.198;6.824;2023-01-06T18:47:26;-21573.22;;;9.67;100.00
19890;BME280;10107;51.198;6.824;2023-01-06T18:51:30;-21572.56;;;9.65;100.00
19890;BME280;10107;51.198;6.824;2023-01-06T18:55:36;-21571.38;;;9.60;100.00
19890;BME280;10107;51.198;6.824;2023-01-06T18:59:39;-21569.78;;;9.54;100.00
19890;BME280;10107;51.198;6.824;2023-01-06T19:03:42;-21568.47;;;9.49;100.00
19890;BME280;10107;51.198;6.824;2023-01-06T19:07:50;-21568.19;;;9.48;100.00
19890;BME280;10107;51.198;6.824;2023-01-06T19:12:00;-21568.59;;;9.49;100.00
19890;BME280;10107;51.198;6.824;2023-01-06T19:16:27;-21569.91;;;9.55;100.00
19890;BME280;10107;51.198;6.824;2023-01-06T19:20:29;-21571.13;;;9.59;100.00
19890;BME280;10107;51.198;6.824;2023-01-06T19:24:40;-21572.19;;;9.63;100.00
19890;BME280;10107;51.198;6.824;2023-01-06T19:28:44;-21572.97;;;9.66;100.00
19890;BME280;10107;51.198;6.824;2023-01-06T19:32:51;-21573.63;;;9.69;100.00
19890;BME280;10107;51.198;6.824;2023-01-06T19:36:54;-21574.16;;;9.71;100.00
19890;BME280;10107;51.198;6.824;2023-01-06T19:41:00;-21574.56;;;9.73;100.00
19890;BME280;10107;51.198;6.824;2023-01-06T19:45:11;-21574.81;;;9.74;100.00
19890;BME280;10107;51.198;6.824;2023-01-06T19:49:23;-21575.34;;;9.76;100.00
19890;BME280;10107;51.198;6.824;2023-01-06T19:53:41;-21575.34;;;9.76;100.00
19890;BME280;10107;51.198;6.824;2023-01-06T19:57:47;-21575.50;;;9.76;100.00
19890;BME280;10107;51.198;6.824;2023-01-06T20:01:56;-21574.56;;;9.73;100.00
19890;BME280;10107;51.198;6.824;2023-01-06T20:06:00;-21573.63;;;9.69;100.00
19890;BME280;10107;51.198;6.824;2023-01-06T20:10:01;-21572.31;;;9.64;100.00
19890;BME280;10107;51.198;6.824;2023-01-06T20:14:03;-21572.19;;;9.63;100.00
19890;BME280;10107;51.198;6.824;2023-01-06T20:18:05;-21571.25;;;9.60;100.00
19890;BME280;10107;51.198;6.824;2023-01-06T20:22:08;-21570.31;;;9.56;100.00
19890;BME280;10107;51.198;6.824;2023-01-06T20:26:12;-21569.53;;;9.53;100.00
19890;BME280;10107;51.198;6.824;2023-01-06T20:30:14;-21569.00;;;9.51;100.00
19890;BME280;10107;51.198;6.824;2023-01-06T20:34:16;-21569.00;;;9.51;100.00
19890;BME280;10107;51.198;6.824;2023-01-06T20:38:21;-21568.84;;;9.50;100.00
19890;BME280;10107;51.198;6.824;2023-01-06T20:42:23;-21569.13;;;9.51;100.00
19890;BME280;10107;51.198;6.824;2023-01-06T20:46:25;-21569.00;;;9.51;100.00
19890;BME280;10107;51.198;6.824;2023-01-06T20:50:27;-21569.25;;;9.52;100.00
19890;BME280;10107;51.198;6.824;2023-01-06T20:54:30;-21569.91;;;9.55;100.00
19890;BME280;10107;51.198;6.824;2023-01-06T20:58:32;-21570.72;;;9.58;100.00
19890;BME280;10107;51.198;6.824;2023-01-06T21:02:33;-21570.59;;;9.57;100.00
19890;BME280;10107;51.198;6.824;2023-01-06T21:06:35;-21571.91;;;9.62;100.00
19890;BME280;10107;51.198;6.824;2023-01-06T21:10:38;-21572.72;;;9.65;100.00
19890;BME280;10107;51.198;6.824;2023-01-06T21:14:40;-21572.97;;;9.66;100.00
19890;BME280;10107;51.198;6.824;2023-01-06T21:18:42;-21572.84;;;9.66;100.00
19890;BME280;10107;51.198;6.824;2023-01-06T21:22:43;-21572.84;;;9.66;100.00